createdAt,value
2019-03-31T00:01:07.557Z,100117.12
2019-03-31T00:03:27.886Z,100116.45
2019-03-31T00:05:57.703Z,100114.55
2019-03-31T00:08:28.945Z,100111.73
2019-03-31T00:11:00.680Z,100108.00
2019-03-31T00:13:30.127Z,100105.86
2019-03-31T00:16:00.016Z,100103.95
2019-03-31T00:18:30.069Z,100108.95
2019-03-31T00:20:59.810Z,100099.38
2019-03-31T00:23:29.897Z,100102.44
2019-03-31T00:25:59.573Z,100110.88
2019-03-31T00:28:29.571Z,100108.44
2019-03-31T00:30:59.300Z,100106.84
2019-03-31T00:33:30.011Z,100106.97
2019-03-31T00:35:59.728Z,100106.64
2019-03-31T00:38:29.402Z,100105.98
2019-03-31T00:40:59.084Z,100107.57
2019-03-31T00:43:28.792Z,100112.81
2019-03-31T00:45:58.698Z,100108.08
2019-03-31T00:48:28.340Z,100101.25
2019-03-31T00:50:58.399Z,100104.16
2019-03-31T00:53:28.065Z,100102.92
2019-03-31T00:55:58.258Z,100100.86
2019-03-31T00:58:27.948Z,100087.87
2019-03-31T01:01:17.953Z,100103.88
2019-03-31T01:03:48.392Z,100104.39
2019-03-31T01:06:19.214Z,100110.95
2019-03-31T01:08:48.877Z,100104.42
2019-03-31T01:11:23.607Z,100105.81
2019-03-31T01:13:53.827Z,100108.17
2019-03-31T01:16:23.630Z,100107.53
2019-03-31T01:18:53.462Z,100109.22
2019-03-31T01:21:23.169Z,100101.70
2019-03-31T01:23:52.833Z,100102.59
2019-03-31T01:26:23.096Z,100104.13
2019-03-31T01:28:53.016Z,100101.09
2019-03-31T01:31:22.700Z,100104.38
2019-03-31T01:33:52.356Z,100109.47
2019-03-31T01:36:22.017Z,100110.64
2019-03-31T01:38:51.717Z,100111.54
2019-03-31T01:41:21.642Z,100112.88
2019-03-31T01:43:51.329Z,100112.58
2019-03-31T01:46:24.058Z,100112.73
2019-03-31T01:48:53.785Z,100106.80
2019-03-31T01:51:23.464Z,100105.56
2019-03-31T01:53:53.236Z,100099.72
2019-03-31T01:56:23.746Z,100099.17
2019-03-31T01:58:53.509Z,100107.09
2019-03-31T02:01:23.313Z,100109.72
2019-03-31T02:03:53.283Z,100109.22
2019-03-31T02:06:22.975Z,100107.82
2019-03-31T02:08:52.697Z,100104.45
2019-03-31T02:11:22.345Z,100099.16
2019-03-31T02:13:52.287Z,100106.34
2019-03-31T02:16:21.997Z,100108.27
2019-03-31T02:18:52.237Z,100109.05
2019-03-31T02:21:22.262Z,100106.33
2019-03-31T02:23:51.904Z,100101.46
2019-03-31T02:26:21.629Z,100100.56
2019-03-31T02:28:51.289Z,100100.11
2019-03-31T02:31:21.159Z,100109.84
2019-03-31T02:33:50.829Z,100101.48
2019-03-31T02:36:20.549Z,100105.66
2019-03-31T02:38:50.250Z,100103.34
2019-03-31T02:41:20.076Z,100101.63
2019-03-31T02:43:49.785Z,100102.00
2019-03-31T02:46:19.430Z,100108.75
2019-03-31T02:48:49.147Z,100101.27
2019-03-31T02:51:18.916Z,100104.55
2019-03-31T02:53:48.746Z,100104.41
2019-03-31T02:56:20.024Z,100106.20
2019-03-31T02:58:50.652Z,100104.27
2019-03-31T03:01:22.685Z,100105.17
2019-03-31T03:03:53.520Z,100107.12
2019-03-31T03:06:24.635Z,100105.26
2019-03-31T03:08:56.124Z,100104.37
2019-03-31T03:11:26.962Z,100100.95
2019-03-31T03:13:59.251Z,100099.45
2019-03-31T03:16:28.983Z,100103.22
2019-03-31T03:18:58.889Z,100097.05
2019-03-31T03:21:28.567Z,100101.43
2019-03-31T03:23:58.237Z,100093.19
2019-03-31T03:26:27.988Z,100101.80
2019-03-31T03:28:57.663Z,100098.65
2019-03-31T03:31:27.625Z,100104.95
2019-03-31T03:33:57.297Z,100106.81
2019-03-31T03:36:27.360Z,100105.47
2019-03-31T03:38:57.069Z,100091.73
2019-03-31T03:41:26.811Z,100103.70
2019-03-31T03:44:01.925Z,100105.04
2019-03-31T03:46:28.209Z,100100.51
2019-03-31T03:48:57.939Z,100095.28
2019-03-31T03:51:27.596Z,100093.86
2019-03-31T03:53:57.244Z,100102.64
2019-03-31T03:56:29.066Z,100102.33
2019-03-31T03:58:58.332Z,100105.47
2019-03-31T04:01:29.694Z,100101.45
2019-03-31T04:03:59.567Z,100100.91
2019-03-31T04:06:29.250Z,100104.12
2019-03-31T04:08:59.110Z,100103.55
2019-03-31T04:11:30.678Z,100103.84
2019-03-31T04:14:00.501Z,100107.63
2019-03-31T04:16:30.175Z,100098.27
2019-03-31T04:18:59.817Z,100096.64
2019-03-31T04:21:29.492Z,100101.92
2019-03-31T04:23:59.162Z,100105.34
2019-03-31T04:26:28.824Z,100108.56
2019-03-31T04:28:58.470Z,100109.55
2019-03-31T04:31:28.164Z,100104.25
2019-03-31T04:33:57.820Z,100101.69
2019-03-31T04:36:27.497Z,100103.12
2019-03-31T04:39:00.188Z,100109.50
2019-03-31T04:41:28.819Z,100115.28
2019-03-31T04:43:58.481Z,100120.22
2019-03-31T04:46:28.149Z,100118.14
2019-03-31T04:48:57.859Z,100118.86
2019-03-31T04:51:27.530Z,100113.48
2019-03-31T04:53:57.246Z,100108.98
2019-03-31T04:56:26.894Z,100105.84
2019-03-31T04:58:56.594Z,100112.22
2019-03-31T05:01:26.632Z,100119.48
2019-03-31T05:04:04.440Z,100117.55
2019-03-31T05:06:27.651Z,100111.09
2019-03-31T05:08:57.317Z,100114.50
2019-03-31T05:11:27.017Z,100118.55
2019-03-31T05:13:56.727Z,100117.83
2019-03-31T05:16:26.613Z,100112.50
2019-03-31T05:18:56.271Z,100116.96
2019-03-31T05:21:26.069Z,100109.63
2019-03-31T05:23:56.246Z,100120.38
2019-03-31T05:26:25.936Z,100111.78
2019-03-31T05:28:55.688Z,100111.36
2019-03-31T05:31:25.381Z,100118.21
2019-03-31T05:33:55.046Z,100120.78
2019-03-31T05:36:24.724Z,100125.31
2019-03-31T05:38:54.540Z,100123.67
2019-03-31T05:41:24.239Z,100122.75
2019-03-31T05:44:05.088Z,100130.61
2019-03-31T05:46:26.442Z,100125.08
2019-03-31T05:48:56.086Z,100127.84
2019-03-31T05:51:25.784Z,100121.69
2019-03-31T05:53:55.490Z,100125.05
2019-03-31T05:56:25.265Z,100119.07
2019-03-31T05:58:54.937Z,100124.91
2019-03-31T06:01:24.840Z,100125.42
2019-03-31T06:03:54.501Z,100128.89
2019-03-31T06:06:24.240Z,100128.80
2019-03-31T06:08:54.039Z,100125.66
2019-03-31T06:11:23.820Z,100121.80
2019-03-31T06:13:53.472Z,100124.00
2019-03-31T06:16:23.199Z,100123.30
2019-03-31T06:18:52.957Z,100128.49
2019-03-31T06:21:22.644Z,100128.97
2019-03-31T06:23:52.311Z,100124.70
2019-03-31T06:26:22.137Z,100131.02
2019-03-31T06:28:51.970Z,100135.33
2019-03-31T06:31:21.661Z,100132.45
2019-03-31T06:33:51.355Z,100127.45
2019-03-31T06:36:21.119Z,100131.57
2019-03-31T06:38:50.827Z,100137.32
2019-03-31T06:41:20.567Z,100140.44
2019-03-31T06:43:50.496Z,100142.34
2019-03-31T06:46:20.346Z,100137.74
2019-03-31T06:48:50.061Z,100134.11
2019-03-31T06:51:19.766Z,100129.24
2019-03-31T06:53:49.449Z,100127.84
2019-03-31T06:56:19.170Z,100124.13
2019-03-31T06:58:48.863Z,100127.76
2019-03-31T07:01:18.570Z,100131.86
2019-03-31T07:03:48.298Z,100125.83
2019-03-31T07:06:18.146Z,100130.95
2019-03-31T07:08:47.881Z,100124.20
2019-03-31T07:11:17.589Z,100132.17
2019-03-31T07:13:47.333Z,100131.93
2019-03-31T07:16:17.012Z,100134.51
2019-03-31T07:18:47.235Z,100136.88
2019-03-31T07:21:17.030Z,100131.81
2019-03-31T07:23:46.723Z,100133.80
2019-03-31T07:26:19.087Z,100133.45
2019-03-31T07:28:48.811Z,100138.56
2019-03-31T07:31:18.998Z,100138.46
2019-03-31T07:33:48.867Z,100140.09
2019-03-31T07:36:18.612Z,100137.15
2019-03-31T07:38:48.531Z,100138.06
2019-03-31T07:41:18.491Z,100136.72
2019-03-31T07:43:48.337Z,100136.41
2019-03-31T07:46:18.249Z,100132.34
2019-03-31T07:48:48.300Z,100130.89
2019-03-31T07:51:17.996Z,100130.80
2019-03-31T07:53:47.999Z,100130.28
2019-03-31T07:56:17.741Z,100129.06
2019-03-31T07:58:47.724Z,100121.83
2019-03-31T08:01:17.687Z,100124.31
2019-03-31T08:03:47.342Z,100122.53
2019-03-31T08:06:17.166Z,100129.19
2019-03-31T08:08:46.981Z,100120.27
2019-03-31T08:11:17.224Z,100118.66
2019-03-31T08:13:47.266Z,100118.24
2019-03-31T08:16:17.051Z,100113.61
2019-03-31T08:18:46.779Z,100113.61
2019-03-31T08:21:16.739Z,100119.59
2019-03-31T08:23:46.864Z,100123.05
2019-03-31T08:26:16.586Z,100122.46
2019-03-31T08:28:46.425Z,100124.25
2019-03-31T08:31:16.314Z,100112.11
2019-03-31T08:33:46.134Z,100114.72
2019-03-31T08:36:15.913Z,100109.00
2019-03-31T08:38:45.635Z,100109.41
2019-03-31T08:41:15.544Z,100112.78
2019-03-31T08:43:45.269Z,100114.16
2019-03-31T08:46:15.279Z,100113.92
2019-03-31T08:48:45.083Z,100117.88
2019-03-31T08:51:15.182Z,100118.52
2019-03-31T08:53:45.004Z,100112.22
2019-03-31T08:56:14.848Z,100113.25
2019-03-31T08:58:44.616Z,100111.61
2019-03-31T09:01:16.563Z,100106.92
2019-03-31T09:03:46.328Z,100106.81
2019-03-31T09:06:16.126Z,100101.83
2019-03-31T09:08:45.950Z,100101.39
2019-03-31T09:11:15.810Z,100101.33
2019-03-31T09:13:45.757Z,100098.57
2019-03-31T09:16:15.640Z,100090.47
2019-03-31T09:18:45.498Z,100091.91
2019-03-31T09:21:15.267Z,100095.33
2019-03-31T09:23:45.027Z,100096.61
2019-03-31T09:26:14.859Z,100085.38
2019-03-31T09:28:44.576Z,100085.41
2019-03-31T09:31:14.385Z,100082.64
2019-03-31T09:33:44.119Z,100080.88
2019-03-31T09:36:16.371Z,100087.20
2019-03-31T09:38:45.400Z,100085.27
2019-03-31T09:41:15.205Z,100087.36
2019-03-31T09:43:45.041Z,100085.81
2019-03-31T09:46:14.794Z,100082.62
2019-03-31T09:48:44.793Z,100079.26
2019-03-31T09:51:14.498Z,100078.86
2019-03-31T09:53:44.354Z,100075.88
2019-03-31T09:56:15.372Z,100070.49
2019-03-31T09:58:45.432Z,100069.62
2019-03-31T10:01:15.186Z,100072.94
2019-03-31T10:03:45.198Z,100066.59
2019-03-31T10:06:14.892Z,100055.67
2019-03-31T10:08:44.954Z,100058.95
2019-03-31T10:11:14.768Z,100055.30
2019-03-31T10:13:45.294Z,100050.45
2019-03-31T10:16:15.032Z,100048.13
2019-03-31T10:18:44.832Z,100040.20
2019-03-31T10:21:14.656Z,100031.78
2019-03-31T10:23:44.524Z,100038.13
2019-03-31T10:26:16.169Z,100033.91
2019-03-31T10:28:45.903Z,100029.98
2019-03-31T10:31:15.821Z,100020.52
2019-03-31T10:33:45.797Z,100025.08
2019-03-31T10:36:16.056Z,100016.05
2019-03-31T10:38:45.930Z,100023.91
2019-03-31T10:41:15.778Z,100025.33
2019-03-31T10:43:45.610Z,100028.62
2019-03-31T10:46:15.430Z,100014.64
2019-03-31T10:48:45.583Z,100013.86
2019-03-31T10:51:15.361Z,100006.73
2019-03-31T10:53:45.140Z,100006.87
2019-03-31T10:56:14.915Z,100006.52
2019-03-31T10:58:44.661Z,100006.73
2019-03-31T11:01:14.375Z,100001.99
2019-03-31T11:03:44.134Z,100003.89
2019-03-31T11:06:13.890Z,99998.11
2019-03-31T11:08:43.692Z,99997.75
2019-03-31T11:11:13.560Z,99993.63
2019-03-31T11:13:43.325Z,99995.73
2019-03-31T11:16:13.197Z,99991.52
2019-03-31T11:18:43.070Z,100000.41
2019-03-31T11:21:23.050Z,100001.46
2019-03-31T11:23:52.771Z,99997.62
2019-03-31T11:26:22.565Z,99996.36
2019-03-31T11:28:52.445Z,99991.03
2019-03-31T11:31:22.371Z,99980.80
2019-03-31T11:33:52.291Z,99983.62
2019-03-31T11:36:22.069Z,99986.02
2019-03-31T11:38:51.935Z,99987.97
2019-03-31T11:41:21.822Z,99982.05
2019-03-31T11:43:51.705Z,99991.58
2019-03-31T11:46:21.558Z,99991.06
2019-03-31T11:48:51.361Z,99989.87
2019-03-31T11:51:21.125Z,99979.55
2019-03-31T11:53:51.324Z,99988.55
2019-03-31T11:56:21.096Z,99978.10
2019-03-31T11:58:50.883Z,99978.69
2019-03-31T12:01:21.027Z,99971.32
2019-03-31T12:03:50.927Z,99971.02
2019-03-31T12:06:21.068Z,99967.64
2019-03-31T12:08:50.826Z,99970.14
2019-03-31T12:11:20.630Z,99965.22
2019-03-31T12:13:50.511Z,99964.17
2019-03-31T12:16:20.304Z,99961.55
2019-03-31T12:18:50.144Z,99961.16
2019-03-31T12:21:20.164Z,99957.03
2019-03-31T12:23:50.091Z,99960.44
2019-03-31T12:26:19.834Z,99953.73
2019-03-31T12:28:49.659Z,99956.03
2019-03-31T12:31:19.418Z,99948.00
2019-03-31T12:33:49.207Z,99959.19
2019-03-31T12:36:18.966Z,99957.14
2019-03-31T12:38:48.720Z,99956.50
2019-03-31T12:41:18.458Z,99948.33
2019-03-31T12:43:48.217Z,99947.45
2019-03-31T12:46:18.486Z,99941.48
2019-03-31T12:48:48.292Z,99937.16
2019-03-31T12:51:18.111Z,99935.73
2019-03-31T12:53:50.937Z,99938.03
2019-03-31T12:56:19.287Z,99934.47
2019-03-31T12:58:49.294Z,99928.72
2019-03-31T13:01:19.012Z,99928.81
2019-03-31T13:03:48.930Z,99929.73
2019-03-31T13:06:18.729Z,99932.93
2019-03-31T13:08:50.212Z,99928.28
2019-03-31T13:11:19.962Z,99924.39
2019-03-31T13:13:49.797Z,99921.95
2019-03-31T13:16:19.576Z,99912.52
2019-03-31T13:18:49.416Z,99912.42
2019-03-31T13:21:20.299Z,99911.98
2019-03-31T13:23:50.568Z,99910.07
2019-03-31T13:26:20.851Z,99911.66
2019-03-31T13:28:50.713Z,99914.59
2019-03-31T13:31:20.415Z,99901.23
2019-03-31T13:33:50.116Z,99901.66
2019-03-31T13:36:20.033Z,99902.05
2019-03-31T13:38:53.019Z,99888.59
2019-03-31T13:41:22.855Z,99891.47
2019-03-31T13:43:52.639Z,99881.83
2019-03-31T13:46:22.880Z,99888.52
2019-03-31T13:48:52.803Z,99885.63
2019-03-31T13:51:24.566Z,99884.45
2019-03-31T13:53:54.167Z,99880.25
2019-03-31T13:56:25.916Z,99879.30
2019-03-31T13:58:56.312Z,99879.38
2019-03-31T14:01:26.516Z,99875.76
2019-03-31T14:03:57.593Z,99872.88
2019-03-31T14:06:27.545Z,99867.98
2019-03-31T14:08:57.407Z,99871.09
2019-03-31T14:11:27.794Z,99870.60
2019-03-31T14:13:57.762Z,99862.27
2019-03-31T14:16:29.238Z,99862.64
2019-03-31T14:18:59.201Z,99863.77
2019-03-31T14:21:29.269Z,99865.72
2019-03-31T14:23:59.101Z,99869.23
2019-03-31T14:26:29.049Z,99866.27
2019-03-31T14:28:58.895Z,99863.52
2019-03-31T14:31:28.715Z,99862.13
2019-03-31T14:33:58.946Z,99861.38
2019-03-31T14:36:28.717Z,99859.50
2019-03-31T14:38:58.624Z,99861.23
2019-03-31T14:41:28.513Z,99855.85
2019-03-31T14:43:58.405Z,99856.55
2019-03-31T14:46:28.461Z,99847.69
2019-03-31T14:48:58.425Z,99848.45
2019-03-31T14:51:28.716Z,99851.55
2019-03-31T14:53:58.585Z,99842.61
2019-03-31T14:56:28.354Z,99847.08
2019-03-31T14:58:58.156Z,99837.63
2019-03-31T15:01:28.258Z,99838.80
2019-03-31T15:03:58.069Z,99832.55
2019-03-31T15:06:28.224Z,99832.23
2019-03-31T15:08:58.317Z,99835.33
2019-03-31T15:11:28.670Z,99827.23
2019-03-31T15:13:58.910Z,99828.74
2019-03-31T15:16:28.932Z,99826.98
2019-03-31T15:18:58.812Z,99823.16
2019-03-31T15:21:28.901Z,99826.80
2019-03-31T15:23:58.791Z,99826.63
2019-03-31T15:26:28.619Z,99822.39
2019-03-31T15:28:58.459Z,99821.69
2019-03-31T15:31:28.530Z,99815.34
2019-03-31T15:33:58.393Z,99825.71
2019-03-31T15:36:28.263Z,99830.77
2019-03-31T15:39:08.847Z,99824.01
2019-03-31T15:41:29.795Z,99818.19
2019-03-31T15:43:59.642Z,99820.99
2019-03-31T15:46:29.809Z,99823.94
2019-03-31T15:48:59.645Z,99830.06
2019-03-31T15:51:29.519Z,99833.09
2019-03-31T15:53:59.556Z,99831.90
2019-03-31T15:56:30.807Z,99823.97
2019-03-31T15:59:00.612Z,99830.22
2019-03-31T16:01:30.413Z,99832.61
2019-03-31T16:04:00.187Z,99832.81
2019-03-31T16:06:30.101Z,99829.70
2019-03-31T16:08:59.312Z,99831.98
2019-03-31T16:11:28.711Z,99829.11
2019-03-31T16:13:57.940Z,99828.00
2019-03-31T16:16:30.506Z,99824.07
2019-03-31T16:18:58.294Z,99831.52
2019-03-31T16:21:27.651Z,99834.02
2019-03-31T16:23:56.946Z,99825.63
2019-03-31T16:26:26.450Z,99832.91
2019-03-31T16:28:56.001Z,99830.89
2019-03-31T16:31:25.207Z,99829.38
2019-03-31T16:33:54.626Z,99844.83
2019-03-31T16:36:23.887Z,99839.88
2019-03-31T16:38:53.073Z,99839.84
2019-03-31T16:41:22.394Z,99830.57
2019-03-31T16:43:51.660Z,99840.27
2019-03-31T16:46:21.109Z,99839.48
2019-03-31T16:48:50.438Z,99842.47
2019-03-31T16:51:19.941Z,99840.86
2019-03-31T16:53:49.339Z,99842.22
2019-03-31T16:56:18.576Z,99841.87
2019-03-31T16:58:47.827Z,99840.43
2019-03-31T17:01:17.231Z,99843.57
2019-03-31T17:03:46.654Z,99840.44
2019-03-31T17:06:15.972Z,99841.05
2019-03-31T17:08:45.472Z,99848.42
2019-03-31T17:11:15.033Z,99846.92
2019-03-31T17:13:44.298Z,99849.78
2019-03-31T17:16:15.465Z,99857.66
2019-03-31T17:18:45.063Z,99857.80
2019-03-31T17:21:14.435Z,99850.20
2019-03-31T17:23:43.881Z,99851.69
2019-03-31T17:26:13.334Z,99851.66
2019-03-31T17:28:42.696Z,99853.72
2019-03-31T17:31:12.175Z,99848.17
2019-03-31T17:33:41.684Z,99844.89
2019-03-31T17:36:11.091Z,99855.63
2019-03-31T17:38:40.479Z,99848.80
2019-03-31T17:41:10.039Z,99852.67
2019-03-31T17:43:39.369Z,99852.58
2019-03-31T17:46:09.131Z,99848.86
2019-03-31T17:48:38.574Z,99855.59
2019-03-31T17:51:08.112Z,99850.31
2019-03-31T17:53:37.820Z,99852.84
2019-03-31T17:56:07.074Z,99857.45
2019-03-31T17:58:36.420Z,99854.34
2019-03-31T18:01:06.375Z,99857.98
2019-03-31T18:03:35.805Z,99858.41
2019-03-31T18:06:05.152Z,99855.48
2019-03-31T18:08:34.489Z,99863.59
2019-03-31T18:11:03.885Z,99865.02
2019-03-31T18:13:33.214Z,99864.63
2019-03-31T18:16:02.593Z,99873.27
2019-03-31T18:18:31.946Z,99872.96
2019-03-31T18:21:01.428Z,99874.06
2019-03-31T18:23:31.064Z,99875.27
2019-03-31T18:26:00.594Z,99887.47
2019-03-31T18:28:29.835Z,99888.35
2019-03-31T18:30:59.576Z,99897.24
2019-03-31T18:33:28.862Z,99900.98
2019-03-31T18:35:58.122Z,99906.23
2019-03-31T18:38:27.460Z,99908.02
2019-03-31T18:40:57.392Z,99911.11
2019-03-31T18:43:26.732Z,99907.38
2019-03-31T18:45:56.048Z,99916.87
2019-03-31T18:48:25.324Z,99916.52
2019-03-31T18:50:54.621Z,99925.32
2019-03-31T18:53:52.244Z,99922.80
2019-03-31T18:56:46.795Z,99925.50
2019-03-31T18:59:54.097Z,99930.91
2019-03-31T19:02:33.709Z,99928.72
2019-03-31T19:05:33.875Z,99931.31
2019-03-31T19:08:34.162Z,99933.37
2019-03-31T19:11:22.358Z,99941.75
2019-03-31T19:16:48.022Z,99945.66
2019-03-31T19:19:25.083Z,99955.03
2019-03-31T19:22:09.938Z,99951.05
2019-03-31T19:25:07.206Z,99956.37
2019-03-31T19:27:50.088Z,99963.99
2019-03-31T19:30:27.152Z,99970.66
2019-03-31T19:33:05.855Z,99969.25
2019-03-31T19:35:41.988Z,99976.50
2019-03-31T19:38:19.812Z,99980.41
2019-03-31T19:41:04.789Z,99984.58
2019-03-31T19:43:39.984Z,99987.73
2019-03-31T19:46:26.842Z,99996.39
2019-03-31T19:49:11.421Z,99997.95
2019-03-31T19:52:11.901Z,99998.00
2019-03-31T19:54:58.862Z,99999.20
2019-03-31T19:57:45.699Z,99995.91
2019-03-31T20:00:30.526Z,100003.84
2019-03-31T20:03:17.577Z,100013.59
2019-03-31T20:06:05.755Z,100009.09
2019-03-31T20:09:09.070Z,100014.69
2019-03-31T20:11:51.596Z,100010.91
2019-03-31T20:14:52.097Z,100023.62
2019-03-31T20:17:39.143Z,100025.03
2019-03-31T20:20:21.455Z,100035.72
2019-03-31T20:23:15.762Z,100030.13
2019-03-31T20:26:07.064Z,100036.08
2019-03-31T20:28:54.103Z,100038.92
2019-03-31T20:31:54.501Z,100042.70
2019-03-31T20:34:42.696Z,100048.41
2019-03-31T20:37:35.340Z,100052.68
2019-03-31T20:40:23.961Z,100056.36
2019-03-31T20:43:11.074Z,100048.42
2019-03-31T20:45:40.529Z,100059.07
2019-03-31T20:48:10.003Z,100059.77
2019-03-31T20:50:39.546Z,100061.53
2019-03-31T20:53:09.001Z,100067.72
2019-03-31T20:55:38.270Z,100069.12
2019-03-31T20:58:07.419Z,100066.76
2019-03-31T21:00:36.801Z,100071.36
2019-03-31T21:03:06.110Z,100074.31
2019-03-31T21:05:35.362Z,100071.36
2019-03-31T21:08:04.580Z,100072.67
2019-03-31T21:10:34.191Z,100077.40
2019-03-31T21:13:03.517Z,100077.04
2019-03-31T21:15:32.981Z,100082.70
2019-03-31T21:18:02.141Z,100076.19
2019-03-31T21:20:31.318Z,100085.28
2019-03-31T21:23:00.509Z,100087.75
2019-03-31T21:25:29.695Z,100094.59
2019-03-31T21:27:59.010Z,100098.00
2019-03-31T21:30:28.143Z,100098.70
2019-03-31T21:32:57.334Z,100106.42
2019-03-31T21:35:26.509Z,100098.70
2019-03-31T21:37:55.730Z,100108.62
2019-03-31T21:40:24.853Z,100106.70
2019-03-31T21:42:54.030Z,100110.70
2019-03-31T21:45:23.210Z,100108.33
2019-03-31T21:47:52.438Z,100109.72
2019-03-31T21:50:21.597Z,100114.03
2019-03-31T21:52:50.867Z,100113.41
2019-03-31T21:55:20.082Z,100109.83
2019-03-31T21:57:49.368Z,100116.44
2019-03-31T22:00:20.628Z,100122.62
2019-03-31T22:02:49.818Z,100110.57
2019-03-31T22:05:19.052Z,100120.46
2019-03-31T22:07:48.319Z,100114.73
2019-03-31T22:10:17.525Z,100114.34
2019-03-31T22:12:47.746Z,100113.45
2019-03-31T22:15:17.017Z,100114.73
2019-03-31T22:17:46.278Z,100118.08
2019-03-31T22:20:15.442Z,100123.74
2019-03-31T22:22:44.639Z,100118.94
2019-03-31T22:25:13.784Z,100123.03
2019-03-31T22:27:42.984Z,100117.67
2019-03-31T22:30:12.529Z,100124.78
2019-03-31T22:32:41.733Z,100124.16
2019-03-31T22:35:10.926Z,100127.53
2019-03-31T22:37:40.100Z,100131.09
2019-03-31T22:40:09.302Z,100124.98
2019-03-31T22:42:38.475Z,100130.06
2019-03-31T22:45:07.713Z,100130.52
2019-03-31T22:47:36.885Z,100138.07
2019-03-31T22:50:06.382Z,100132.55
2019-03-31T22:52:35.538Z,100129.41
2019-03-31T22:55:04.731Z,100128.98
2019-03-31T22:57:33.887Z,100131.87
2019-03-31T23:00:03.156Z,100128.97
2019-03-31T23:02:32.389Z,100125.25
2019-03-31T23:05:01.594Z,100126.13
2019-03-31T23:07:30.848Z,100130.89
2019-03-31T23:10:00.178Z,100126.36
2019-03-31T23:12:29.396Z,100126.98
2019-03-31T23:14:58.711Z,100126.81
2019-03-31T23:17:27.920Z,100124.30
2019-03-31T23:19:57.132Z,100119.86
2019-03-31T23:22:27.775Z,100119.60
2019-03-31T23:24:57.024Z,100117.93
2019-03-31T23:27:26.291Z,100116.75
2019-03-31T23:29:55.633Z,100113.40
2019-03-31T23:32:24.843Z,100104.60
2019-03-31T23:34:54.033Z,100107.80
2019-03-31T23:37:23.274Z,100108.10
2019-03-31T23:39:52.415Z,100101.35
2019-03-31T23:42:21.557Z,100099.56
2019-03-31T23:44:50.899Z,100106.43
2019-03-31T23:47:20.077Z,100108.20
2019-03-31T23:49:49.231Z,100107.38
2019-03-31T23:52:18.413Z,100107.58
2019-03-31T23:54:47.569Z,100094.70
2019-03-31T23:57:41.435Z,100109.62
